sensor_id;sensor_type;location;lat;lon;timestamp;temperature;humidity
20319;DHT22;10317;47.254;11.314;2023-05-07T00:02:06;12.70;99.90
20319;DHT22;10317;47.254;11.314;2023-05-07T00:04:32;12.70;99.90
20319;DHT22;10317;47.254;11.314;2023-05-07T00:07:02;12.70;99.90
20319;DHT22;10317;47.254;11.314;2023-05-07T00:09:28;12.70;99.90
20319;DHT22;10317;47.254;11.314;2023-05-07T00:11:54;12.70;99.90
20319;DHT22;10317;47.254;11.314;2023-05-07T00:14:19;12.70;99.90
20319;DHT22;10317;47.254;11.314;2023-05-07T00:16:45;12.70;99.90
20319;DHT22;10317;47.254;11.314;2023-05-07T00:19:11;12.70;99.90
20319;DHT22;10317;47.254;11.314;2023-05-07T00:21:37;12.60;99.90
20319;DHT22;10317;47.254;11.314;2023-05-07T00:24:02;12.60;99.90
20319;DHT22;10317;47.254;11.314;2023-05-07T00:26:28;12.50;99.90
20319;DHT22;10317;47.254;11.314;2023-05-07T00:28:54;12.50;99.90
20319;DHT22;10317;47.254;11.314;2023-05-07T00:31:20;12.50;99.90
20319;DHT22;10317;47.254;11.314;2023-05-07T00:33:45;12.50;99.90
20319;DHT22;10317;47.254;11.314;2023-05-07T00:36:12;12.50;99.90
20319;DHT22;10317;47.254;11.314;2023-05-07T00:38:37;12.50;99.90
20319;DHT22;10317;47.254;11.314;2023-05-07T00:41:03;12.50;99.90
20319;DHT22;10317;47.254;11.314;2023-05-07T00:43:28;12.50;99.90
20319;DHT22;10317;47.254;11.314;2023-05-07T00:45:55;12.50;99.90
20319;DHT22;10317;47.254;11.314;2023-05-07T00:48:21;12.50;99.90
20319;DHT22;10317;47.254;11.314;2023-05-07T00:50:47;12.50;99.90
20319;DHT22;10317;47.254;11.314;2023-05-07T00:53:13;12.50;99.90
20319;DHT22;10317;47.254;11.314;2023-05-07T00:55:39;12.40;99.90
20319;DHT22;10317;47.254;11.314;2023-05-07T00:58:06;12.40;99.90
20319;DHT22;10317;47.254;11.314;2023-05-07T01:00:31;12.40;99.90
20319;DHT22;10317;47.254;11.314;2023-05-07T01:02:58;12.40;99.90
20319;DHT22;10317;47.254;11.314;2023-05-07T01:05:24;12.40;99.90
20319;DHT22;10317;47.254;11.314;2023-05-07T01:07:53;12.40;99.90
20319;DHT22;10317;47.254;11.314;2023-05-07T01:10:20;12.30;99.90
20319;DHT22;10317;47.254;11.314;2023-05-07T01:12:46;12.30;99.90
20319;DHT22;10317;47.254;11.314;2023-05-07T01:15:13;12.40;99.90
20319;DHT22;10317;47.254;11.314;2023-05-07T01:17:40;12.40;99.90
20319;DHT22;10317;47.254;11.314;2023-05-07T01:20:07;12.40;99.90
20319;DHT22;10317;47.254;11.314;2023-05-07T01:22:34;12.40;99.90
20319;DHT22;10317;47.254;11.314;2023-05-07T01:25:06;12.40;99.90
20319;DHT22;10317;47.254;11.314;2023-05-07T01:27:32;12.40;99.90
20319;DHT22;10317;47.254;11.314;2023-05-07T01:30:03;12.40;99.90
20319;DHT22;10317;47.254;11.314;2023-05-07T01:32:36;12.30;99.90
20319;DHT22;10317;47.254;11.314;2023-05-07T01:35:05;12.30;99.90
20319;DHT22;10317;47.254;11.314;2023-05-07T01:37:33;12.30;99.90
20319;DHT22;10317;47.254;11.314;2023-05-07T01:39:59;12.30;99.90
20319;DHT22;10317;47.254;11.314;2023-05-07T01:42:26;12.30;99.90
20319;DHT22;10317;47.254;11.314;2023-05-07T01:44:52;12.30;99.90
20319;DHT22;10317;47.254;11.314;2023-05-07T01:47:17;12.30;99.90
20319;DHT22;10317;47.254;11.314;2023-05-07T01:49:44;12.30;99.90
20319;DHT22;10317;47.254;11.314;2023-05-07T01:52:10;12.30;99.90
20319;DHT22;10317;47.254;11.314;2023-05-07T01:54:37;12.30;99.90
20319;DHT22;10317;47.254;11.314;2023-05-07T01:57:02;12.20;99.90
20319;DHT22;10317;47.254;11.314;2023-05-07T01:59:28;12.20;99.90
20319;DHT22;10317;47.254;11.314;2023-05-07T02:01:54;12.20;99.90
20319;DHT22;10317;47.254;11.314;2023-05-07T02:04:19;12.10;99.90
20319;DHT22;10317;47.254;11.314;2023-05-07T02:06:45;12.10;99.90
20319;DHT22;10317;47.254;11.314;2023-05-07T02:09:13;12.10;99.90
20319;DHT22;10317;47.254;11.314;2023-05-07T02:11:40;12.10;99.90
20319;DHT22;10317;47.254;11.314;2023-05-07T02:14:06;12.10;99.90
20319;DHT22;10317;47.254;11.314;2023-05-07T02:16:31;12.10;99.90
20319;DHT22;10317;47.254;11.314;2023-05-07T02:18:57;12.10;99.90
20319;DHT22;10317;47.254;11.314;2023-05-07T02:21:24;12.10;99.90
20319;DHT22;10317;47.254;11.314;2023-05-07T02:23:50;12.10;99.90
20319;DHT22;10317;47.254;11.314;2023-05-07T02:26:16;12.10;99.90
20319;DHT22;10317;47.254;11.314;2023-05-07T02:28:42;12.10;99.90
20319;DHT22;10317;47.254;11.314;2023-05-07T02:31:07;12.10;99.90
20319;DHT22;10317;47.254;11.314;2023-05-07T02:33:33;12.10;99.90
20319;DHT22;10317;47.254;11.314;2023-05-07T02:36:10;12.20;99.90
20319;DHT22;10317;47.254;11.314;2023-05-07T02:38:36;12.20;99.90
20319;DHT22;10317;47.254;11.314;2023-05-07T02:41:01;12.20;99.90
20319;DHT22;10317;47.254;11.314;2023-05-07T02:43:27;12.20;99.90
20319;DHT22;10317;47.254;11.314;2023-05-07T02:46:07;12.20;99.90
20319;DHT22;10317;47.254;11.314;2023-05-07T02:48:33;12.20;99.90
20319;DHT22;10317;47.254;11.314;2023-05-07T02:51:00;12.20;99.90
20319;DHT22;10317;47.254;11.314;2023-05-07T02:53:26;12.10;99.90
20319;DHT22;10317;47.254;11.314;2023-05-07T02:55:53;12.10;99.90
20319;DHT22;10317;47.254;11.314;2023-05-07T02:58:19;12.10;99.90
20319;DHT22;10317;47.254;11.314;2023-05-07T03:00:45;12.10;99.90
20319;DHT22;10317;47.254;11.314;2023-05-07T03:03:10;12.10;99.90
20319;DHT22;10317;47.254;11.314;2023-05-07T03:05:36;12.10;99.90
20319;DHT22;10317;47.254;11.314;2023-05-07T03:08:02;12.10;99.90
20319;DHT22;10317;47.254;11.314;2023-05-07T03:10:29;12.00;99.90
20319;DHT22;10317;47.254;11.314;2023-05-07T03:12:55;12.10;99.90
20319;DHT22;10317;47.254;11.314;2023-05-07T03:15:21;12.00;99.90
20319;DHT22;10317;47.254;11.314;2023-05-07T03:17:47;11.90;99.90
20319;DHT22;10317;47.254;11.314;2023-05-07T03:20:13;11.90;99.90
20319;DHT22;10317;47.254;11.314;2023-05-07T03:22:39;11.80;99.90
20319;DHT22;10317;47.254;11.314;2023-05-07T03:25:06;11.80;99.90
20319;DHT22;10317;47.254;11.314;2023-05-07T03:27:31;11.70;99.90
20319;DHT22;10317;47.254;11.314;2023-05-07T03:29:57;11.70;99.90
20319;DHT22;10317;47.254;11.314;2023-05-07T03:32:23;11.70;99.90
20319;DHT22;10317;47.254;11.314;2023-05-07T03:34:48;11.70;99.90
20319;DHT22;10317;47.254;11.314;2023-05-07T03:37:14;11.60;99.90
20319;DHT22;10317;47.254;11.314;2023-05-07T03:39:40;11.60;99.90
20319;DHT22;10317;47.254;11.314;2023-05-07T03:42:06;11.60;99.90
20319;DHT22;10317;47.254;11.314;2023-05-07T03:44:31;11.60;99.90
20319;DHT22;10317;47.254;11.314;2023-05-07T03:46:57;11.50;99.90
20319;DHT22;10317;47.254;11.314;2023-05-07T03:49:23;11.40;99.90
20319;DHT22;10317;47.254;11.314;2023-05-07T03:51:48;11.40;99.90
20319;DHT22;10317;47.254;11.314;2023-05-07T03:54:14;11.40;99.90
20319;DHT22;10317;47.254;11.314;2023-05-07T03:56:40;11.40;99.90
20319;DHT22;10317;47.254;11.314;2023-05-07T03:59:05;11.40;99.90
20319;DHT22;10317;47.254;11.314;2023-05-07T04:01:31;11.40;99.90
20319;DHT22;10317;47.254;11.314;2023-05-07T04:03:57;11.40;99.90
20319;DHT22;10317;47.254;11.314;2023-05-07T04:06:22;11.40;99.90
20319;DHT22;10317;47.254;11.314;2023-05-07T04:08:48;11.40;99.90
20319;DHT22;10317;47.254;11.314;2023-05-07T04:11:14;11.40;99.90
20319;DHT22;10317;47.254;11.314;2023-05-07T04:13:39;11.30;99.90
20319;DHT22;10317;47.254;11.314;2023-05-07T04:16:05;11.30;99.90
20319;DHT22;10317;47.254;11.314;2023-05-07T04:18:31;11.30;99.90
20319;DHT22;10317;47.254;11.314;2023-05-07T04:20:57;11.40;99.90
20319;DHT22;10317;47.254;11.314;2023-05-07T04:23:22;11.40;99.90
20319;DHT22;10317;47.254;11.314;2023-05-07T04:25:48;11.40;99.90
20319;DHT22;10317;47.254;11.314;2023-05-07T04:28:14;11.40;99.90
20319;DHT22;10317;47.254;11.314;2023-05-07T04:30:39;11.50;99.90
20319;DHT22;10317;47.254;11.314;2023-05-07T04:33:06;11.50;99.90
20319;DHT22;10317;47.254;11.314;2023-05-07T04:35:32;11.50;99.90
20319;DHT22;10317;47.254;11.314;2023-05-07T04:37:58;11.50;99.90
20319;DHT22;10317;47.254;11.314;2023-05-07T04:40:23;11.50;99.90
20319;DHT22;10317;47.254;11.314;2023-05-07T04:42:49;11.60;99.90
20319;DHT22;10317;47.254;11.314;2023-05-07T04:45:15;11.60;99.90
20319;DHT22;10317;47.254;11.314;2023-05-07T04:47:41;11.70;99.90
20319;DHT22;10317;47.254;11.314;2023-05-07T04:50:07;11.70;99.90
20319;DHT22;10317;47.254;11.314;2023-05-07T04:52:33;11.80;99.90
20319;DHT22;10317;47.254;11.314;2023-05-07T04:55:00;11.90;99.90
20319;DHT22;10317;47.254;11.314;2023-05-07T04:57:26;12.00;99.90
20319;DHT22;10317;47.254;11.314;2023-05-07T04:59:52;12.00;99.90
20319;DHT22;10317;47.254;11.314;2023-05-07T05:02:18;12.20;99.90
20319;DHT22;10317;47.254;11.314;2023-05-07T05:04:44;12.30;99.90
20319;DHT22;10317;47.254;11.314;2023-05-07T05:07:10;12.40;99.90
20319;DHT22;10317;47.254;11.314;2023-05-07T05:09:35;12.50;99.90
20319;DHT22;10317;47.254;11.314;2023-05-07T05:12:01;12.60;99.90
20319;DHT22;10317;47.254;11.314;2023-05-07T05:14:26;12.70;99.90
20319;DHT22;10317;47.254;11.314;2023-05-07T05:16:52;12.80;99.90
20319;DHT22;10317;47.254;11.314;2023-05-07T05:19:18;13.10;99.90
20319;DHT22;10317;47.254;11.314;2023-05-07T05:21:43;13.20;99.90
20319;DHT22;10317;47.254;11.314;2023-05-07T05:24:09;13.30;99.90
20319;DHT22;10317;47.254;11.314;2023-05-07T05:26:35;13.40;99.90
20319;DHT22;10317;47.254;11.314;2023-05-07T05:29:00;13.50;99.90
20319;DHT22;10317;47.254;11.314;2023-05-07T05:31:26;13.70;99.90
20319;DHT22;10317;47.254;11.314;2023-05-07T05:33:52;13.80;99.90
20319;DHT22;10317;47.254;11.314;2023-05-07T05:36:18;14.00;99.90
20319;DHT22;10317;47.254;11.314;2023-05-07T05:38:43;14.20;99.90
20319;DHT22;10317;47.254;11.314;2023-05-07T05:41:09;14.30;99.90
20319;DHT22;10317;47.254;11.314;2023-05-07T05:43:36;14.50;99.90
20319;DHT22;10317;47.254;11.314;2023-05-07T05:46:02;14.60;99.90
20319;DHT22;10317;47.254;11.314;2023-05-07T05:48:29;14.70;99.90
20319;DHT22;10317;47.254;11.314;2023-05-07T05:50:55;14.80;99.90
20319;DHT22;10317;47.254;11.314;2023-05-07T05:53:21;15.00;99.90
20319;DHT22;10317;47.254;11.314;2023-05-07T05:55:46;15.20;99.90
20319;DHT22;10317;47.254;11.314;2023-05-07T05:58:12;15.30;99.90
20319;DHT22;10317;47.254;11.314;2023-05-07T06:00:38;15.50;99.90
20319;DHT22;10317;47.254;11.314;2023-05-07T06:03:03;15.60;99.90
20319;DHT22;10317;47.254;11.314;2023-05-07T06:05:29;15.70;99.90
20319;DHT22;10317;47.254;11.314;2023-05-07T06:07:55;15.80;99.90
20319;DHT22;10317;47.254;11.314;2023-05-07T06:10:21;16.00;99.90
20319;DHT22;10317;47.254;11.314;2023-05-07T06:12:47;16.30;99.90
20319;DHT22;10317;47.254;11.314;2023-05-07T06:15:12;16.60;99.90
20319;DHT22;10317;47.254;11.314;2023-05-07T06:17:38;17.00;99.90
20319;DHT22;10317;47.254;11.314;2023-05-07T06:20:04;17.40;99.90
20319;DHT22;10317;47.254;11.314;2023-05-07T06:22:30;17.90;99.90
20319;DHT22;10317;47.254;11.314;2023-05-07T06:24:56;18.30;99.90
20319;DHT22;10317;47.254;11.314;2023-05-07T06:27:21;18.80;99.90
20319;DHT22;10317;47.254;11.314;2023-05-07T06:29:48;19.00;99.90
20319;DHT22;10317;47.254;11.314;2023-05-07T06:32:14;19.70;99.90
20319;DHT22;10317;47.254;11.314;2023-05-07T06:34:40;19.70;99.90
20319;DHT22;10317;47.254;11.314;2023-05-07T06:37:06;19.80;98.70
20319;DHT22;10317;47.254;11.314;2023-05-07T06:39:32;19.90;99.90
20319;DHT22;10317;47.254;11.314;2023-05-07T06:41:59;19.90;99.80
20319;DHT22;10317;47.254;11.314;2023-05-07T06:44:25;20.50;99.20
20319;DHT22;10317;47.254;11.314;2023-05-07T06:46:51;20.90;98.40
20319;DHT22;10317;47.254;11.314;2023-05-07T06:49:17;21.50;96.50
20319;DHT22;10317;47.254;11.314;2023-05-07T06:51:43;21.70;94.90
20319;DHT22;10317;47.254;11.314;2023-05-07T06:54:09;21.60;93.40
20319;DHT22;10317;47.254;11.314;2023-05-07T06:56:35;21.40;93.50
20319;DHT22;10317;47.254;11.314;2023-05-07T06:59:01;21.20;93.70
20319;DHT22;10317;47.254;11.314;2023-05-07T07:01:28;20.90;94.30
20319;DHT22;10317;47.254;11.314;2023-05-07T07:03:53;20.80;95.20
20319;DHT22;10317;47.254;11.314;2023-05-07T07:06:19;21.10;94.70
20319;DHT22;10317;47.254;11.314;2023-05-07T07:08:45;22.10;93.00
20319;DHT22;10317;47.254;11.314;2023-05-07T07:11:11;22.40;91.70
20319;DHT22;10317;47.254;11.314;2023-05-07T07:13:37;23.20;90.10
20319;DHT22;10317;47.254;11.314;2023-05-07T07:16:02;23.10;86.90
20319;DHT22;10317;47.254;11.314;2023-05-07T07:18:28;23.00;84.10
20319;DHT22;10317;47.254;11.314;2023-05-07T07:20:54;23.00;84.00
20319;DHT22;10317;47.254;11.314;2023-05-07T07:23:20;23.10;83.10
20319;DHT22;10317;47.254;11.314;2023-05-07T07:25:46;23.20;79.60
20319;DHT22;10317;47.254;11.314;2023-05-07T07:28:11;23.50;79.40
20319;DHT22;10317;47.254;11.314;2023-05-07T07:30:37;23.80;77.10
20319;DHT22;10317;47.254;11.314;2023-05-07T07:33:03;23.90;74.10
20319;DHT22;10317;47.254;11.314;2023-05-07T07:35:29;24.20;73.40
20319;DHT22;10317;47.254;11.314;2023-05-07T07:37:55;24.40;73.60
20319;DHT22;10317;47.254;11.314;2023-05-07T07:40:21;24.40;70.90
20319;DHT22;10317;47.254;11.314;2023-05-07T07:42:47;24.20;71.00
20319;DHT22;10317;47.254;11.314;2023-05-07T07:45:12;24.20;70.20
20319;DHT22;10317;47.254;11.314;2023-05-07T07:47:39;24.20;69.00
20319;DHT22;10317;47.254;11.314;2023-05-07T07:50:06;24.20;69.20
20319;DHT22;10317;47.254;11.314;2023-05-07T07:52:32;24.20;68.60
20319;DHT22;10317;47.254;11.314;2023-05-07T07:54:58;24.10;67.20
20319;DHT22;10317;47.254;11.314;2023-05-07T07:57:23;24.50;66.20
20319;DHT22;10317;47.254;11.314;2023-05-07T07:59:50;24.80;66.40
20319;DHT22;10317;47.254;11.314;2023-05-07T08:02:16;24.90;65.30
20319;DHT22;10317;47.254;11.314;2023-05-07T08:04:42;25.30;65.50
20319;DHT22;10317;47.254;11.314;2023-05-07T08:07:09;25.40;65.10
20319;DHT22;10317;47.254;11.314;2023-05-07T08:09:36;25.70;63.60
20319;DHT22;10317;47.254;11.314;2023-05-07T08:12:02;25.60;62.60
20319;DHT22;10317;47.254;11.314;2023-05-07T08:14:28;25.50;62.00
20319;DHT22;10317;47.254;11.314;2023-05-07T08:16:54;25.80;60.30
20319;DHT22;10317;47.254;11.314;2023-05-07T08:19:20;25.80;59.80
20319;DHT22;10317;47.254;11.314;2023-05-07T08:21:46;26.00;61.70
20319;DHT22;10317;47.254;11.314;2023-05-07T08:24:14;25.90;61.00
20319;DHT22;10317;47.254;11.314;2023-05-07T08:26:40;26.00;60.50
20319;DHT22;10317;47.254;11.314;2023-05-07T08:29:06;26.00;59.90
20319;DHT22;10317;47.254;11.314;2023-05-07T08:31:31;26.00;59.80
20319;DHT22;10317;47.254;11.314;2023-05-07T08:33:58;25.90;58.30
20319;DHT22;10317;47.254;11.314;2023-05-07T08:36:24;25.60;57.70
20319;DHT22;10317;47.254;11.314;2023-05-07T08:38:51;25.50;58.00
20319;DHT22;10317;47.254;11.314;2023-05-07T08:41:16;25.30;58.20
20319;DHT22;10317;47.254;11.314;2023-05-07T08:43:47;25.40;56.70
20319;DHT22;10317;47.254;11.314;2023-05-07T08:46:18;25.20;57.00
20319;DHT22;10317;47.254;11.314;2023-05-07T08:48:45;24.90;55.90
20319;DHT22;10317;47.254;11.314;2023-05-07T08:51:14;24.80;57.00
20319;DHT22;10317;47.254;11.314;2023-05-07T08:53:41;24.90;57.50
20319;DHT22;10317;47.254;11.314;2023-05-07T08:56:08;25.00;59.00
20319;DHT22;10317;47.254;11.314;2023-05-07T08:58:34;25.20;58.30
20319;DHT22;10317;47.254;11.314;2023-05-07T09:01:03;25.70;58.10
20319;DHT22;10317;47.254;11.314;2023-05-07T09:03:30;25.70;54.80
20319;DHT22;10317;47.254;11.314;2023-05-07T09:05:56;25.80;55.80
20319;DHT22;10317;47.254;11.314;2023-05-07T09:08:25;25.70;56.60
20319;DHT22;10317;47.254;11.314;2023-05-07T09:10:52;26.20;55.80
20319;DHT22;10317;47.254;11.314;2023-05-07T09:13:18;25.80;55.30
20319;DHT22;10317;47.254;11.314;2023-05-07T09:15:44;25.70;55.80
20319;DHT22;10317;47.254;11.314;2023-05-07T09:18:10;25.60;55.40
20319;DHT22;10317;47.254;11.314;2023-05-07T09:20:37;25.40;54.60
20319;DHT22;10317;47.254;11.314;2023-05-07T09:23:02;25.30;55.20
20319;DHT22;10317;47.254;11.314;2023-05-07T09:25:32;25.50;54.50
20319;DHT22;10317;47.254;11.314;2023-05-07T09:27:59;25.50;54.90
20319;DHT22;10317;47.254;11.314;2023-05-07T09:30:32;25.50;54.70
20319;DHT22;10317;47.254;11.314;2023-05-07T09:32:59;25.60;55.00
20319;DHT22;10317;47.254;11.314;2023-05-07T09:35:26;25.50;55.10
20319;DHT22;10317;47.254;11.314;2023-05-07T09:37:58;25.40;54.20
20319;DHT22;10317;47.254;11.314;2023-05-07T09:40:26;25.50;55.60
20319;DHT22;10317;47.254;11.314;2023-05-07T09:42:52;25.50;55.10
20319;DHT22;10317;47.254;11.314;2023-05-07T09:45:30;25.40;54.40
20319;DHT22;10317;47.254;11.314;2023-05-07T09:47:58;25.10;54.70
20319;DHT22;10317;47.254;11.314;2023-05-07T09:50:33;24.90;54.20
20319;DHT22;10317;47.254;11.314;2023-05-07T09:53:01;24.80;54.30
20319;DHT22;10317;47.254;11.314;2023-05-07T09:55:27;24.80;54.30
20319;DHT22;10317;47.254;11.314;2023-05-07T09:57:53;25.00;54.00
20319;DHT22;10317;47.254;11.314;2023-05-07T10:00:21;25.20;53.80
20319;DHT22;10317;47.254;11.314;2023-05-07T10:02:52;25.00;53.00
20319;DHT22;10317;47.254;11.314;2023-05-07T10:05:18;24.90;55.00
20319;DHT22;10317;47.254;11.314;2023-05-07T10:07:46;25.10;54.00
20319;DHT22;10317;47.254;11.314;2023-05-07T10:10:12;25.00;52.90
20319;DHT22;10317;47.254;11.314;2023-05-07T10:12:38;24.90;53.70
20319;DHT22;10317;47.254;11.314;2023-05-07T10:15:10;25.00;54.50
20319;DHT22;10317;47.254;11.314;2023-05-07T10:17:39;25.10;54.30
20319;DHT22;10317;47.254;11.314;2023-05-07T10:20:06;25.10;56.20
20319;DHT22;10317;47.254;11.314;2023-05-07T10:22:44;25.20;55.80
20319;DHT22;10317;47.254;11.314;2023-05-07T10:25:23;25.10;53.40
20319;DHT22;10317;47.254;11.314;2023-05-07T10:27:51;24.90;54.60
20319;DHT22;10317;47.254;11.314;2023-05-07T10:33:02;25.10;54.80
20319;DHT22;10317;47.254;11.314;2023-05-07T10:35:37;25.30;53.50
20319;DHT22;10317;47.254;11.314;2023-05-07T10:38:04;25.20;53.40
20319;DHT22;10317;47.254;11.314;2023-05-07T10:40:31;25.10;52.10
20319;DHT22;10317;47.254;11.314;2023-05-07T10:42:58;25.00;56.00
20319;DHT22;10317;47.254;11.314;2023-05-07T10:45:26;25.20;56.90
20319;DHT22;10317;47.254;11.314;2023-05-07T10:48:14;25.00;54.90
20319;DHT22;10317;47.254;11.314;2023-05-07T10:50:42;25.20;54.90
20319;DHT22;10317;47.254;11.314;2023-05-07T10:58:28;25.30;54.30
20319;DHT22;10317;47.254;11.314;2023-05-07T11:00:57;25.20;53.20
20319;DHT22;10317;47.254;11.314;2023-05-07T11:03:23;25.00;52.70
20319;DHT22;10317;47.254;11.314;2023-05-07T11:06:09;24.90;53.90
20319;DHT22;10317;47.254;11.314;2023-05-07T11:08:57;24.80;54.00
20319;DHT22;10317;47.254;11.314;2023-05-07T11:11:49;25.00;53.80
20319;DHT22;10317;47.254;11.314;2023-05-07T11:14:45;25.10;54.20
20319;DHT22;10317;47.254;11.314;2023-05-07T11:17:11;25.20;52.40
20319;DHT22;10317;47.254;11.314;2023-05-07T11:19:56;25.30;53.50
20319;DHT22;10317;47.254;11.314;2023-05-07T11:25:00;25.20;51.20
20319;DHT22;10317;47.254;11.314;2023-05-07T11:27:26;25.30;54.10
20319;DHT22;10317;47.254;11.314;2023-05-07T11:29:52;25.50;53.40
20319;DHT22;10317;47.254;11.314;2023-05-07T11:32:26;25.70;52.30
20319;DHT22;10317;47.254;11.314;2023-05-07T11:34:52;25.50;52.10
20319;DHT22;10317;47.254;11.314;2023-05-07T11:37:19;25.70;51.40
20319;DHT22;10317;47.254;11.314;2023-05-07T11:39:45;26.00;51.10
20319;DHT22;10317;47.254;11.314;2023-05-07T11:44:56;26.20;49.90
20319;DHT22;10317;47.254;11.314;2023-05-07T11:47:22;26.20;49.70
20319;DHT22;10317;47.254;11.314;2023-05-07T11:49:49;26.20;49.20
20319;DHT22;10317;47.254;11.314;2023-05-07T11:52:16;26.10;49.50
20319;DHT22;10317;47.254;11.314;2023-05-07T11:54:49;26.10;46.40
20319;DHT22;10317;47.254;11.314;2023-05-07T11:57:15;26.10;47.50
20319;DHT22;10317;47.254;11.314;2023-05-07T11:59:41;26.20;47.40
20319;DHT22;10317;47.254;11.314;2023-05-07T12:02:07;26.20;46.80
20319;DHT22;10317;47.254;11.314;2023-05-07T12:04:33;26.30;48.70
20319;DHT22;10317;47.254;11.314;2023-05-07T12:06:59;26.20;48.20
20319;DHT22;10317;47.254;11.314;2023-05-07T12:09:25;26.40;48.30
20319;DHT22;10317;47.254;11.314;2023-05-07T12:11:52;26.60;48.50
20319;DHT22;10317;47.254;11.314;2023-05-07T12:14:18;26.80;47.80
20319;DHT22;10317;47.254;11.314;2023-05-07T12:16:44;26.80;47.30
20319;DHT22;10317;47.254;11.314;2023-05-07T12:19:11;26.80;47.00
20319;DHT22;10317;47.254;11.314;2023-05-07T12:21:40;26.90;46.50
20319;DHT22;10317;47.254;11.314;2023-05-07T12:24:07;27.00;47.10
20319;DHT22;10317;47.254;11.314;2023-05-07T12:26:40;26.90;47.50
20319;DHT22;10317;47.254;11.314;2023-05-07T12:29:06;26.90;46.80
20319;DHT22;10317;47.254;11.314;2023-05-07T12:31:32;27.00;48.70
20319;DHT22;10317;47.254;11.314;2023-05-07T12:33:57;27.10;48.30
20319;DHT22;10317;47.254;11.314;2023-05-07T12:36:23;27.20;46.30
20319;DHT22;10317;47.254;11.314;2023-05-07T12:38:50;26.90;46.60
20319;DHT22;10317;47.254;11.314;2023-05-07T12:41:16;26.70;47.50
20319;DHT22;10317;47.254;11.314;2023-05-07T12:43:44;26.60;47.20
20319;DHT22;10317;47.254;11.314;2023-05-07T12:46:11;26.80;46.10
20319;DHT22;10317;47.254;11.314;2023-05-07T12:48:43;26.50;45.60
20319;DHT22;10317;47.254;11.314;2023-05-07T12:51:10;26.40;45.20
20319;DHT22;10317;47.254;11.314;2023-05-07T12:53:40;26.30;45.00
20319;DHT22;10317;47.254;11.314;2023-05-07T12:56:07;26.50;44.90
20319;DHT22;10317;47.254;11.314;2023-05-07T12:58:34;26.80;44.80
20319;DHT22;10317;47.254;11.314;2023-05-07T13:01:04;26.90;45.30
20319;DHT22;10317;47.254;11.314;2023-05-07T13:03:32;26.90;44.80
20319;DHT22;10317;47.254;11.314;2023-05-07T13:06:00;26.80;44.40
20319;DHT22;10317;47.254;11.314;2023-05-07T13:08:31;26.90;43.80
20319;DHT22;10317;47.254;11.314;2023-05-07T13:11:01;27.00;43.10
20319;DHT22;10317;47.254;11.314;2023-05-07T13:13:29;26.80;45.00
20319;DHT22;10317;47.254;11.314;2023-05-07T13:15:56;26.80;48.40
20319;DHT22;10317;47.254;11.314;2023-05-07T13:18:21;26.60;49.00
20319;DHT22;10317;47.254;11.314;2023-05-07T13:20:47;26.30;49.30
20319;DHT22;10317;47.254;11.314;2023-05-07T13:23:13;26.30;49.80
20319;DHT22;10317;47.254;11.314;2023-05-07T13:25:39;26.20;49.90
20319;DHT22;10317;47.254;11.314;2023-05-07T13:28:05;26.00;50.70
20319;DHT22;10317;47.254;11.314;2023-05-07T13:30:31;25.50;49.60
20319;DHT22;10317;47.254;11.314;2023-05-07T13:32:56;25.20;50.20
20319;DHT22;10317;47.254;11.314;2023-05-07T13:35:22;24.80;51.20
20319;DHT22;10317;47.254;11.314;2023-05-07T13:37:48;24.60;52.00
20319;DHT22;10317;47.254;11.314;2023-05-07T13:40:14;24.30;52.70
20319;DHT22;10317;47.254;11.314;2023-05-07T13:42:40;24.10;51.00
20319;DHT22;10317;47.254;11.314;2023-05-07T13:45:07;24.00;51.80
20319;DHT22;10317;47.254;11.314;2023-05-07T13:47:33;23.90;52.60
20319;DHT22;10317;47.254;11.314;2023-05-07T13:49:58;24.00;52.20
20319;DHT22;10317;47.254;11.314;2023-05-07T13:52:24;23.90;53.10
20319;DHT22;10317;47.254;11.314;2023-05-07T13:54:50;23.80;53.40
20319;DHT22;10317;47.254;11.314;2023-05-07T13:57:18;23.80;54.20
20319;DHT22;10317;47.254;11.314;2023-05-07T13:59:43;23.90;53.90
20319;DHT22;10317;47.254;11.314;2023-05-07T14:02:09;24.10;53.80
20319;DHT22;10317;47.254;11.314;2023-05-07T14:04:35;24.30;52.70
20319;DHT22;10317;47.254;11.314;2023-05-07T14:07:00;24.70;54.30
20319;DHT22;10317;47.254;11.314;2023-05-07T14:09:26;24.90;53.60
20319;DHT22;10317;47.254;11.314;2023-05-07T14:11:52;24.90;51.60
20319;DHT22;10317;47.254;11.314;2023-05-07T14:14:18;24.60;51.80
20319;DHT22;10317;47.254;11.314;2023-05-07T14:16:44;24.80;51.30
20319;DHT22;10317;47.254;11.314;2023-05-07T14:19:10;25.00;52.30
20319;DHT22;10317;47.254;11.314;2023-05-07T14:21:36;24.90;51.00
20319;DHT22;10317;47.254;11.314;2023-05-07T14:24:02;24.90;51.20
20319;DHT22;10317;47.254;11.314;2023-05-07T14:26:28;24.70;52.50
20319;DHT22;10317;47.254;11.314;2023-05-07T14:28:54;24.50;53.10
20319;DHT22;10317;47.254;11.314;2023-05-07T14:31:22;24.20;53.60
20319;DHT22;10317;47.254;11.314;2023-05-07T14:33:48;24.00;53.50
20319;DHT22;10317;47.254;11.314;2023-05-07T14:36:18;23.80;54.90
20319;DHT22;10317;47.254;11.314;2023-05-07T14:38:48;23.60;54.20
20319;DHT22;10317;47.254;11.314;2023-05-07T14:41:14;23.50;53.80
20319;DHT22;10317;47.254;11.314;2023-05-07T14:43:40;23.60;54.10
20319;DHT22;10317;47.254;11.314;2023-05-07T14:46:05;23.60;53.80
20319;DHT22;10317;47.254;11.314;2023-05-07T14:48:31;23.70;52.90
20319;DHT22;10317;47.254;11.314;2023-05-07T14:50:57;23.80;54.40
20319;DHT22;10317;47.254;11.314;2023-05-07T14:53:23;23.70;53.00
20319;DHT22;10317;47.254;11.314;2023-05-07T14:55:48;23.60;53.20
20319;DHT22;10317;47.254;11.314;2023-05-07T14:58:14;23.60;53.70
20319;DHT22;10317;47.254;11.314;2023-05-07T15:00:40;23.60;53.50
20319;DHT22;10317;47.254;11.314;2023-05-07T15:03:08;23.80;52.90
20319;DHT22;10317;47.254;11.314;2023-05-07T15:05:34;24.00;52.20
20319;DHT22;10317;47.254;11.314;2023-05-07T15:08:00;23.70;51.60
20319;DHT22;10317;47.254;11.314;2023-05-07T15:10:26;23.50;52.20
20319;DHT22;10317;47.254;11.314;2023-05-07T15:12:51;23.20;53.00
20319;DHT22;10317;47.254;11.314;2023-05-07T15:15:17;23.10;53.60
20319;DHT22;10317;47.254;11.314;2023-05-07T15:17:43;23.00;55.10
20319;DHT22;10317;47.254;11.314;2023-05-07T15:20:09;22.90;54.70
20319;DHT22;10317;47.254;11.314;2023-05-07T15:22:35;22.70;53.50
20319;DHT22;10317;47.254;11.314;2023-05-07T15:25:02;22.60;55.10
20319;DHT22;10317;47.254;11.314;2023-05-07T15:27:30;22.60;55.10